Time;durP1;ratioP1;P1;durP2;ratioP2;P2;SDS_P1;SDS_P2;PMS_P1;PMS_P2;Temp;Humidity;BMP_temperature;BMP_pressure;BME280_temperature;BME280_humidity;BME280_pressure;Samples;Min_cycle;Max_cycle;Signal;HPM_P1;HPM_P2
2024/01/22 00:01:18;;;;;;;5.68;4.13;;;;;;;;;;5103534;27;20052;-59
2024/01/22 00:03:44;;;;;;;5.78;3.88;;;;;;;;;;5103083;27;20076;-61
2024/01/22 00:06:11;;;;;;;8.23;3.88;;;;;;;;;;5102314;27;20048;-61
2024/01/22 00:08:37;;;;;;;10.32;3.45;;;;;;;;;;5103327;27;20044;-61
2024/01/22 00:11:05;;;;;;;8.23;4.00;;;;;;;;;;5103378;27;20052;-61
2024/01/22 00:13:32;;;;;;;8.45;3.85;;;;;;;;;;5103718;27;20056;-61
2024/01/22 00:15:58;;;;;;;7.93;4.07;;;;;;;;;;5103057;27;20079;-60
2024/01/22 00:18:25;;;;;;;6.78;4.10;;;;;;;;;;5106355;27;20432;-59
2024/01/22 00:20:51;;;;;;;7.25;3.50;;;;;;;;;;5106535;27;20052;-60
2024/01/22 00:23:18;;;;;;;9.88;4.30;;;;;;;;;;5106114;27;20048;-61
2024/01/22 00:25:44;;;;;;;5.35;3.60;;;;;;;;;;5106484;27;20498;-61
2024/01/22 00:28:10;;;;;;;7.97;3.75;;;;;;;;;;5106686;27;20326;-60
2024/01/22 00:30:37;;;;;;;7.68;3.20;;;;;;;;;;5106014;27;20520;-62
2024/01/22 00:33:03;;;;;;;7.63;4.13;;;;;;;;;;5105847;27;20052;-61
2024/01/22 00:35:30;;;;;;;4.82;3.10;;;;;;;;;;5106502;27;20044;-62
2024/01/22 00:37:56;;;;;;;5.88;3.50;;;;;;;;;;5106118;27;20063;-61
2024/01/22 00:40:23;;;;;;;5.40;3.72;;;;;;;;;;5106057;27;20044;-62
2024/01/22 00:42:49;;;;;;;6.22;3.60;;;;;;;;;;5106649;27;20055;-62
2024/01/22 00:45:16;;;;;;;6.35;3.72;;;;;;;;;;5106491;27;20526;-62
2024/01/22 00:47:43;;;;;;;4.32;3.78;;;;;;;;;;5104752;28;20044;-59
2024/01/22 00:50:09;;;;;;;5.80;3.67;;;;;;;;;;5105559;27;20056;-62
2024/01/22 00:52:36;;;;;;;7.35;3.60;;;;;;;;;;5105782;27;20055;-62
2024/01/22 00:55:02;;;;;;;7.82;3.95;;;;;;;;;;5104526;27;20518;-61
2024/01/22 00:57:29;;;;;;;5.93;4.10;;;;;;;;;;5106929;27;20171;-61
2024/01/22 00:59:55;;;;;;;4.75;3.45;;;;;;;;;;5105241;27;20051;-61
2024/01/22 01:02:22;;;;;;;5.43;3.47;;;;;;;;;;5105817;27;20056;-61
2024/01/22 01:04:48;;;;;;;3.97;3.03;;;;;;;;;;5105358;27;20062;-60
2024/01/22 01:07:14;;;;;;;5.53;3.15;;;;;;;;;;5105937;27;20059;-61
2024/01/22 01:09:41;;;;;;;6.18;2.90;;;;;;;;;;5105370;27;20361;-60
2024/01/22 01:12:08;;;;;;;6.20;3.50;;;;;;;;;;5105832;27;20056;-62
2024/01/22 01:14:34;;;;;;;3.97;2.83;;;;;;;;;;5105493;27;20159;-61
2024/01/22 01:17:00;;;;;;;3.28;2.90;;;;;;;;;;5105519;27;20063;-61
2024/01/22 01:19:27;;;;;;;8.93;3.33;;;;;;;;;;5105333;27;20087;-62
2024/01/22 01:21:53;;;;;;;6.57;2.83;;;;;;;;;;5105446;27;20052;-59
2024/01/22 01:24:20;;;;;;;6.35;2.75;;;;;;;;;;5106075;27;20518;-62
2024/01/22 01:26:47;;;;;;;6.97;2.92;;;;;;;;;;5105309;27;20045;-61
2024/01/22 01:29:13;;;;;;;6.90;3.47;;;;;;;;;;5103561;27;20048;-61
2024/01/22 01:31:40;;;;;;;5.63;2.90;;;;;;;;;;5105877;27;20047;-61
2024/01/22 01:34:06;;;;;;;9.77;3.30;;;;;;;;;;5104952;27;20115;-61
2024/01/22 01:36:33;;;;;;;6.18;3.50;;;;;;;;;;5105496;28;20052;-61
2024/01/22 01:38:59;;;;;;;5.32;3.22;;;;;;;;;;5104960;27;20056;-61
2024/01/22 01:41:26;;;;;;;7.40;3.60;;;;;;;;;;5105817;27;20079;-63
2024/01/22 01:43:52;;;;;;;5.90;3.55;;;;;;;;;;5104339;27;20056;-60
2024/01/22 01:46:19;;;;;;;8.25;3.13;;;;;;;;;;5105521;27;20055;-62
2024/01/22 01:48:45;;;;;;;9.27;3.90;;;;;;;;;;5104589;27;20039;-61
2024/01/22 01:51:12;;;;;;;3.20;2.67;;;;;;;;;;5105390;27;20056;-61
2024/01/22 01:53:39;;;;;;;4.65;2.55;;;;;;;;;;5105440;27;20056;-60
2024/01/22 01:56:06;;;;;;;4.32;3.30;;;;;;;;;;5104488;27;20062;-61
2024/01/22 01:58:33;;;;;;;4.90;3.28;;;;;;;;;;5105522;27;20059;-61
2024/01/22 02:01:00;;;;;;;6.85;3.35;;;;;;;;;;5105538;27;20417;-61
2024/01/22 02:03:27;;;;;;;7.82;2.97;;;;;;;;;;5104122;27;20063;-60
2024/01/22 02:05:54;;;;;;;6.22;2.95;;;;;;;;;;5104500;27;20056;-60
2024/01/22 02:08:20;;;;;;;2.97;2.50;;;;;;;;;;5104754;27;20163;-60
2024/01/22 02:10:47;;;;;;;5.18;3.10;;;;;;;;;;5103031;27;20608;-60
2024/01/22 02:13:14;;;;;;;4.43;2.80;;;;;;;;;;5105183;27;20084;-60
2024/01/22 02:15:42;;;;;;;7.22;3.35;;;;;;;;;;5104908;27;20227;-60
2024/01/22 02:18:08;;;;;;;6.93;2.80;;;;;;;;;;5105218;27;20056;-60
2024/01/22 02:20:35;;;;;;;4.13;2.38;;;;;;;;;;5104763;27;20965;-59
2024/01/22 02:23:03;;;;;;;7.20;2.50;;;;;;;;;;5103455;27;20048;-59
2024/01/22 02:25:29;;;;;;;5.50;3.08;;;;;;;;;;5103961;27;20523;-60
2024/01/22 02:27:56;;;;;;;3.75;2.63;;;;;;;;;;5104347;27;20047;-61
2024/01/22 02:30:22;;;;;;;3.15;2.60;;;;;;;;;;5103923;27;20517;-63
2024/01/22 02:32:49;;;;;;;5.90;2.53;;;;;;;;;;5104159;27;20048;-58
2024/01/22 02:35:16;;;;;;;4.60;2.30;;;;;;;;;;5104120;27;20047;-61
2024/01/22 02:37:42;;;;;;;3.45;2.45;;;;;;;;;;5104452;27;20055;-61
2024/01/22 02:40:09;;;;;;;5.43;2.58;;;;;;;;;;5104490;27;20130;-61
2024/01/22 02:42:36;;;;;;;4.45;2.28;;;;;;;;;;5104241;27;20060;-60
2024/01/22 02:45:02;;;;;;;2.95;2.38;;;;;;;;;;5104209;27;20117;-59
2024/01/22 02:47:29;;;;;;;6.63;2.58;;;;;;;;;;5104517;27;20475;-60
2024/01/22 02:49:56;;;;;;;3.92;2.20;;;;;;;;;;5103875;27;20175;-60
2024/01/22 02:52:22;;;;;;;5.32;2.60;;;;;;;;;;5103783;27;20536;-61
2024/01/22 02:54:48;;;;;;;4.68;2.28;;;;;;;;;;5105322;27;20059;-60
2024/01/22 02:57:15;;;;;;;2.88;2.33;;;;;;;;;;5104378;27;20510;-59
2024/01/22 02:59:42;;;;;;;3.22;1.88;;;;;;;;;;5104255;28;20114;-59
2024/01/22 03:02:08;;;;;;;4.55;1.90;;;;;;;;;;5105248;27;20059;-59
2024/01/22 03:04:35;;;;;;;3.88;3.08;;;;;;;;;;5105007;27;20048;-60
2024/01/22 03:07:01;;;;;;;5.50;2.00;;;;;;;;;;5105060;27;20127;-59
2024/01/22 03:09:28;;;;;;;2.03;1.88;;;;;;;;;;5105241;27;20056;-59
2024/01/22 03:11:54;;;;;;;2.15;1.67;;;;;;;;;;5105087;27;20059;-59
2024/01/22 03:14:21;;;;;;;3.05;1.80;;;;;;;;;;5105078;27;20231;-59
2024/01/22 03:16:48;;;;;;;3.13;1.88;;;;;;;;;;5105019;27;20056;-60
2024/01/22 03:19:14;;;;;;;4.40;1.70;;;;;;;;;;5105216;28;20044;-59
2024/01/22 03:21:41;;;;;;;3.72;1.65;;;;;;;;;;5103922;27;20961;-59
2024/01/22 03:24:07;;;;;;;3.10;1.75;;;;;;;;;;5104233;27;20052;-59
2024/01/22 03:26:33;;;;;;;1.73;1.60;;;;;;;;;;5104091;27;20055;-58
2024/01/22 03:29:00;;;;;;;2.20;1.77;;;;;;;;;;5102470;28;20143;-58
2024/01/22 03:31:28;;;;;;;3.10;1.90;;;;;;;;;;5104325;27;20059;-59
2024/01/22 03:33:55;;;;;;;3.53;1.63;;;;;;;;;;5103636;27;20044;-61
2024/01/22 03:36:22;;;;;;;4.18;1.80;;;;;;;;;;5104237;27;20105;-57
2024/01/22 03:38:49;;;;;;;1.92;1.63;;;;;;;;;;5104353;27;20052;-60
2024/01/22 03:41:15;;;;;;;2.65;1.52;;;;;;;;;;5104491;27;20143;-61
2024/01/22 03:43:43;;;;;;;3.47;2.33;;;;;;;;;;5103466;27;20056;-60
2024/01/22 03:46:10;;;;;;;2.13;1.50;;;;;;;;;;5104010;27;20059;-60
2024/01/22 03:48:37;;;;;;;3.45;1.80;;;;;;;;;;5105422;27;20056;-60
2024/01/22 03:51:04;;;;;;;3.20;1.60;;;;;;;;;;5104109;27;20052;-60
2024/01/22 03:53:30;;;;;;;3.25;1.70;;;;;;;;;;5106927;27;20062;-60
2024/01/22 03:55:56;;;;;;;3.53;1.92;;;;;;;;;;5106527;27;20052;-60
2024/01/22 03:58:23;;;;;;;2.00;1.58;;;;;;;;;;5106766;27;20048;-60
2024/01/22 04:00:50;;;;;;;4.18;2.13;;;;;;;;;;5103089;28;20055;-61
2024/01/22 04:03:16;;;;;;;2.47;1.58;;;;;;;;;;5106695;27;20141;-60
2024/01/22 04:05:43;;;;;;;1.83;1.60;;;;;;;;;;5106150;27;20145;-58
2024/01/22 04:08:10;;;;;;;2.05;1.65;;;;;;;;;;5107057;27;20059;-60
2024/01/22 04:10:36;;;;;;;1.90;1.50;;;;;;;;;;5107032;27;20459;-61
2024/01/22 04:13:03;;;;;;;2.65;1.45;;;;;;;;;;5105997;27;20052;-60
2024/01/22 04:15:29;;;;;;;1.92;1.73;;;;;;;;;;5107026;27;20530;-61
2024/01/22 04:17:55;;;;;;;1.58;1.48;;;;;;;;;;5106602;27;20056;-60
2024/01/22 04:20:22;;;;;;;2.38;1.35;;;;;;;;;;5106679;27;20055;-59
2024/01/22 04:22:50;;;;;;;2.28;1.40;;;;;;;;;;5106613;27;20109;-58
2024/01/22 04:25:17;;;;;;;1.55;1.23;;;;;;;;;;5106766;27;20612;-60
2024/01/22 04:27:43;;;;;;;2.72;1.50;;;;;;;;;;5106364;27;20052;-59
2024/01/22 04:30:10;;;;;;;2.05;1.60;;;;;;;;;;5106828;27;20048;-60
2024/01/22 04:32:36;;;;;;;2.15;1.05;;;;;;;;;;5106857;27;20048;-59
2024/01/22 04:35:04;;;;;;;2.17;1.15;;;;;;;;;;5105977;27;20056;-60
2024/01/22 04:37:30;;;;;;;1.30;1.20;;;;;;;;;;5107032;27;20105;-60
2024/01/22 04:40:09;;;;;;;2.38;1.35;;;;;;;;;;5106396;27;20482;-60
2024/01/22 04:42:36;;;;;;;3.45;1.20;;;;;;;;;;5106266;27;20056;-59
2024/01/22 04:45:02;;;;;;;1.35;1.25;;;;;;;;;;5105784;27;20048;-60
2024/01/22 04:47:29;;;;;;;3.22;1.30;;;;;;;;;;5105678;28;20390;-59
2024/01/22 04:49:55;;;;;;;1.15;1.05;;;;;;;;;;5105821;27;20068;-59
2024/01/22 04:52:21;;;;;;;1.90;1.20;;;;;;;;;;5106400;27;20894;-59
2024/01/22 04:54:48;;;;;;;7.18;1.50;;;;;;;;;;5106702;28;20498;-59
2024/01/22 04:57:14;;;;;;;0.73;0.73;;;;;;;;;;5105350;27;20048;-59
2024/01/22 04:59:41;;;;;;;1.63;1.17;;;;;;;;;;5104338;27;20048;-59
2024/01/22 05:02:07;;;;;;;3.95;1.10;;;;;;;;;;5105997;27;20063;-59
2024/01/22 05:04:33;;;;;;;1.73;1.40;;;;;;;;;;5106134;27;20052;-59
2024/01/22 05:07:00;;;;;;;1.10;1.10;;;;;;;;;;5104609;28;20048;-59
2024/01/22 05:09:26;;;;;;;3.70;1.10;;;;;;;;;;5105825;27;20117;-60
2024/01/22 05:11:53;;;;;;;3.92;1.45;;;;;;;;;;5105493;27;20052;-60
2024/01/22 05:14:19;;;;;;;1.73;1.40;;;;;;;;;;5106220;27;20068;-59
2024/01/22 05:16:46;;;;;;;2.05;1.25;;;;;;;;;;5106004;27;20071;-60
2024/01/22 05:19:12;;;;;;;1.77;1.60;;;;;;;;;;5106399;27;20059;-60
2024/01/22 05:21:39;;;;;;;1.50;1.40;;;;;;;;;;5106516;27;20056;-58
2024/01/22 05:24:06;;;;;;;4.00;1.70;;;;;;;;;;5105581;27;20044;-60
2024/01/22 05:26:32;;;;;;;2.67;1.70;;;;;;;;;;5105114;27;20584;-60
2024/01/22 05:28:59;;;;;;;2.33;1.35;;;;;;;;;;5105875;27;20062;-59
2024/01/22 05:31:25;;;;;;;3.00;1.50;;;;;;;;;;5105766;27;20541;-60
2024/01/22 05:33:52;;;;;;;1.52;1.42;;;;;;;;;;5104890;27;20125;-59
2024/01/22 05:36:18;;;;;;;2.65;1.45;;;;;;;;;;5106034;27;20052;-58
2024/01/22 05:38:44;;;;;;;2.33;1.20;;;;;;;;;;5105727;27;20733;-60
2024/01/22 05:41:11;;;;;;;1.65;1.40;;;;;;;;;;5105400;27;20159;-60
2024/01/22 05:43:38;;;;;;;6.97;1.50;;;;;;;;;;5105643;27;20052;-59
2024/01/22 05:46:04;;;;;;;3.08;1.05;;;;;;;;;;5092048;27;20122;-59
2024/01/22 05:48:33;;;;;;;2.13;1.10;;;;;;;;;;5105175;27;20076;-60
2024/01/22 05:50:59;;;;;;;2.20;0.80;;;;;;;;;;5105050;27;20059;-61
2024/01/22 05:53:27;;;;;;;7.78;1.15;;;;;;;;;;5105024;27;20068;-60
2024/01/22 05:55:54;;;;;;;3.33;1.15;;;;;;;;;;5103814;27;20063;-59
2024/01/22 05:58:20;;;;;;;5.95;1.75;;;;;;;;;;5106446;27;20097;-60
2024/01/22 06:00:46;;;;;;;3.25;0.80;;;;;;;;;;5099710;27;20172;-60
2024/01/22 06:03:13;;;;;;;4.25;1.20;;;;;;;;;;5089433;27;20056;-59
2024/01/22 06:05:40;;;;;;;3.35;1.02;;;;;;;;;;5092032;27;20049;-58
2024/01/22 06:08:06;;;;;;;10.75;1.27;;;;;;;;;;5105325;27;20133;-60
2024/01/22 06:10:34;;;;;;;2.53;1.15;;;;;;;;;;5096977;27;20199;-60
2024/01/22 06:13:01;;;;;;;8.18;1.35;;;;;;;;;;5092588;27;20056;-60
2024/01/22 06:15:28;;;;;;;6.15;1.10;;;;;;;;;;5104605;27;20056;-60
2024/01/22 06:17:54;;;;;;;11.75;1.75;;;;;;;;;;5104995;27;20197;-59
2024/01/22 06:20:20;;;;;;;5.10;1.40;;;;;;;;;;5105686;27;20052;-60
2024/01/22 06:22:47;;;;;;;8.20;1.58;;;;;;;;;;5095800;27;20530;-59
2024/01/22 06:25:13;;;;;;;5.47;1.38;;;;;;;;;;5084607;28;20076;-58
2024/01/22 06:27:44;;;;;;;4.47;1.58;;;;;;;;;;5084609;28;20110;-60
2024/01/22 06:30:12;;;;;;;7.88;2.55;;;;;;;;;;5085102;28;20052;-59
2024/01/22 06:32:39;;;;;;;4.07;1.40;;;;;;;;;;5084568;28;20052;-58
2024/01/22 06:35:06;;;;;;;9.43;2.20;;;;;;;;;;5084118;28;20525;-60
2024/01/22 06:37:34;;;;;;;9.98;2.03;;;;;;;;;;5098120;27;20510;-60
2024/01/22 06:40:00;;;;;;;5.07;1.52;;;;;;;;;;5118172;27;20162;-59
2024/01/22 06:42:29;;;;;;;6.20;1.77;;;;;;;;;;5107435;27;20138;-60
2024/01/22 06:45:04;;;;;;;6.75;1.80;;;;;;;;;;5107256;27;20055;-60
2024/01/22 06:47:33;;;;;;;10.15;2.20;;;;;;;;;;5102555;27;20080;-60
2024/01/22 06:50:00;;;;;;;4.93;1.58;;;;;;;;;;5103183;27;20095;-58
2024/01/22 06:52:27;;;;;;;7.55;1.80;;;;;;;;;;5104439;27;20051;-59
2024/01/22 06:54:55;;;;;;;6.25;1.95;;;;;;;;;;5112455;27;20075;-60
2024/01/22 06:57:21;;;;;;;7.65;2.60;;;;;;;;;;5103799;27;20048;-59
2024/01/22 06:59:48;;;;;;;4.35;1.42;;;;;;;;;;5113093;27;20131;-61
2024/01/22 07:02:15;;;;;;;10.43;2.45;;;;;;;;;;5103093;27;20052;-60
2024/01/22 07:04:42;;;;;;;7.22;2.20;;;;;;;;;;5102872;27;20618;-60
2024/01/22 07:07:09;;;;;;;9.13;1.80;;;;;;;;;;5102916;27;20491;-60
2024/01/22 07:09:35;;;;;;;5.55;1.63;;;;;;;;;;5102970;27;20486;-60
2024/01/22 07:12:03;;;;;;;8.85;2.80;;;;;;;;;;5103358;27;20060;-60
2024/01/22 07:14:29;;;;;;;6.05;1.70;;;;;;;;;;5103342;27;20048;-60
2024/01/22 07:16:56;;;;;;;11.15;2.58;;;;;;;;;;5102746;27;20110;-60
2024/01/22 07:19:22;;;;;;;4.75;2.03;;;;;;;;;;5103393;27;20060;-59
2024/01/22 07:21:48;;;;;;;8.00;2.45;;;;;;;;;;5103294;27;20048;-60
2024/01/22 07:24:15;;;;;;;10.50;2.63;;;;;;;;;;5103288;27;20097;-60
2024/01/22 07:26:42;;;;;;;14.55;2.58;;;;;;;;;;5102979;27;20697;-59
2024/01/22 07:29:09;;;;;;;6.88;2.20;;;;;;;;;;5102010;27;20540;-60
2024/01/22 07:31:35;;;;;;;10.38;2.65;;;;;;;;;;5103220;27;20056;-60
2024/01/22 07:34:01;;;;;;;11.23;2.85;;;;;;;;;;5102639;27;20056;-59
2024/01/22 07:36:28;;;;;;;11.93;2.72;;;;;;;;;;5102407;27;20051;-59
2024/01/22 07:38:56;;;;;;;16.70;3.15;;;;;;;;;;5103010;27;20052;-59
2024/01/22 07:41:23;;;;;;;9.48;2.90;;;;;;;;;;5103373;27;20056;-59
2024/01/22 07:43:49;;;;;;;14.15;2.45;;;;;;;;;;5102882;27;20552;-60
2024/01/22 07:46:16;;;;;;;19.25;2.97;;;;;;;;;;5102778;27;20052;-61
2024/01/22 07:48:42;;;;;;;16.92;3.85;;;;;;;;;;5103089;27;20639;-58
2024/01/22 07:51:08;;;;;;;13.07;2.78;;;;;;;;;;5102318;27;20068;-59
2024/01/22 07:53:35;;;;;;;24.23;3.78;;;;;;;;;;5102951;27;20522;-60
2024/01/22 07:56:02;;;;;;;16.70;2.53;;;;;;;;;;5101848;27;20143;-58
2024/01/22 07:58:28;;;;;;;15.50;3.25;;;;;;;;;;5100191;27;20059;-60
2024/01/22 08:00:55;;;;;;;14.45;4.22;;;;;;;;;;5101905;27;20060;-59
2024/01/22 08:03:22;;;;;;;20.35;2.90;;;;;;;;;;5108032;27;20670;-60
2024/01/22 08:05:49;;;;;;;20.17;3.47;;;;;;;;;;5118662;27;20055;-61
2024/01/22 08:08:15;;;;;;;19.60;4.40;;;;;;;;;;5108463;27;20055;-60
2024/01/22 08:10:42;;;;;;;19.00;3.35;;;;;;;;;;5122904;27;20132;-60
2024/01/22 08:13:08;;;;;;;19.10;4.78;;;;;;;;;;5118700;27;20056;-59
2024/01/22 08:15:35;;;;;;;21.55;4.57;;;;;;;;;;5102339;27;20048;-60
2024/01/22 08:18:02;;;;;;;17.52;3.05;;;;;;;;;;5101718;27;20059;-58
2024/01/22 08:20:28;;;;;;;25.67;3.88;;;;;;;;;;5101716;27;20083;-60
2024/01/22 08:22:56;;;;;;;15.65;3.42;;;;;;;;;;5100285;27;20051;-59
2024/01/22 08:25:27;;;;;;;18.42;3.10;;;;;;;;;;5102683;27;20067;-59
2024/01/22 08:27:54;;;;;;;17.40;3.25;;;;;;;;;;5102360;27;20113;-59
2024/01/22 08:30:21;;;;;;;9.10;2.08;;;;;;;;;;5102468;27;20126;-59
2024/01/22 08:32:48;;;;;;;13.85;3.58;;;;;;;;;;5106482;27;20052;-58
2024/01/22 08:35:16;;;;;;;11.85;3.03;;;;;;;;;;5102716;27;20052;-58
2024/01/22 08:37:47;;;;;;;17.45;2.97;;;;;;;;;;5104377;27;20505;-59
2024/01/22 08:40:17;;;;;;;18.77;2.92;;;;;;;;;;5122386;27;20052;-59
2024/01/22 08:42:45;;;;;;;15.80;3.45;;;;;;;;;;5085471;28;20084;-59
2024/01/22 08:45:11;;;;;;;21.55;2.85;;;;;;;;;;5085727;28;20118;-60
2024/01/22 08:47:38;;;;;;;13.88;3.45;;;;;;;;;;5095992;27;20056;-60
2024/01/22 08:50:05;;;;;;;14.20;4.07;;;;;;;;;;5105543;27;20536;-59
2024/01/22 08:52:31;;;;;;;18.88;3.50;;;;;;;;;;5106070;27;20576;-58
2024/01/22 08:54:57;;;;;;;19.83;3.58;;;;;;;;;;5103682;27;20052;-59
2024/01/22 08:57:24;;;;;;;18.33;3.78;;;;;;;;;;5105155;27;20565;-59
2024/01/22 08:59:51;;;;;;;18.90;5.60;;;;;;;;;;5105242;27;20090;-59
2024/01/22 09:02:18;;;;;;;29.10;4.53;;;;;;;;;;5105179;27;20052;-59
2024/01/22 09:04:44;;;;;;;24.67;4.60;;;;;;;;;;5104877;27;20950;-60
2024/01/22 09:07:11;;;;;;;32.78;4.95;;;;;;;;;;5105797;27;20102;-60
2024/01/22 09:09:37;;;;;;;21.20;4.35;;;;;;;;;;5104905;27;20106;-60
2024/01/22 09:12:03;;;;;;;18.92;4.68;;;;;;;;;;5104343;27;20143;-60
2024/01/22 09:14:30;;;;;;;30.20;4.15;;;;;;;;;;5105267;27;20088;-60
2024/01/22 09:16:56;;;;;;;50.58;7.22;;;;;;;;;;5103741;27;20048;-59
2024/01/22 09:19:23;;;;;;;27.48;5.57;;;;;;;;;;5105387;27;20118;-60
2024/01/22 09:21:49;;;;;;;29.55;5.13;;;;;;;;;;5105283;27;20048;-62
2024/01/22 09:24:16;;;;;;;29.40;5.05;;;;;;;;;;5113715;27;20052;-61
2024/01/22 09:26:43;;;;;;;48.17;6.53;;;;;;;;;;5104508;27;20052;-60
2024/01/22 09:29:10;;;;;;;32.78;6.55;;;;;;;;;;5104667;27;20048;-61
2024/01/22 09:31:36;;;;;;;33.53;5.20;;;;;;;;;;5103735;27;20056;-61
2024/01/22 09:34:04;;;;;;;29.88;5.85;;;;;;;;;;5104023;27;20563;-61
2024/01/22 09:36:31;;;;;;;35.03;7.25;;;;;;;;;;5104639;27;20243;-60
2024/01/22 09:38:57;;;;;;;29.65;5.38;;;;;;;;;;5104282;27;20059;-60
2024/01/22 09:41:25;;;;;;;41.70;6.18;;;;;;;;;;5104158;27;20048;-59
2024/01/22 09:43:52;;;;;;;22.77;4.72;;;;;;;;;;5102583;27;20058;-60
2024/01/22 09:46:19;;;;;;;36.05;5.97;;;;;;;;;;5104570;27;20505;-59
2024/01/22 09:48:48;;;;;;;30.40;5.03;;;;;;;;;;5103521;27;20105;-60
2024/01/22 09:51:16;;;;;;;28.67;4.47;;;;;;;;;;5103118;28;20052;-60
2024/01/22 09:53:45;;;;;;;32.70;6.07;;;;;;;;;;5103089;27;20564;-60
2024/01/22 09:56:15;;;;;;;36.75;6.68;;;;;;;;;;5119387;27;20066;-60
2024/01/22 09:58:43;;;;;;;40.92;5.30;;;;;;;;;;5104874;27;20052;-60
2024/01/22 10:01:13;;;;;;;29.13;5.63;;;;;;;;;;5103803;27;20551;-60
2024/01/22 10:03:40;;;;;;;39.30;5.47;;;;;;;;;;5094693;27;20063;-60
2024/01/22 10:06:07;;;;;;;28.63;5.25;;;;;;;;;;5103982;27;20187;-59
2024/01/22 10:08:34;;;;;;;25.27;5.25;;;;;;;;;;5101503;27;20133;-60
2024/01/22 10:11:02;;;;;;;25.77;5.18;;;;;;;;;;5103124;27;20052;-61
2024/01/22 10:13:29;;;;;;;26.48;5.22;;;;;;;;;;5103738;27;20055;-60
2024/01/22 10:16:06;;;;;;;29.67;6.60;;;;;;;;;;5103137;27;20470;-60
2024/01/22 10:18:33;;;;;;;34.13;6.07;;;;;;;;;;5112712;27;20504;-58
2024/01/22 10:20:59;;;;;;;27.83;5.15;;;;;;;;;;5124085;27;20140;-61
2024/01/22 10:23:26;;;;;;;19.17;4.00;;;;;;;;;;5111223;27;20115;-59
2024/01/22 10:26:04;;;;;;;26.33;6.03;;;;;;;;;;5101459;27;20056;-59
2024/01/22 10:28:31;;;;;;;22.98;4.55;;;;;;;;;;5092938;27;20526;-61
2024/01/22 10:31:01;;;;;;;31.80;4.75;;;;;;;;;;5102784;27;20659;-60
2024/01/22 10:33:28;;;;;;;20.45;3.30;;;;;;;;;;5103753;27;20044;-61
2024/01/22 10:35:57;;;;;;;31.65;6.88;;;;;;;;;;5101637;27;20059;-60
2024/01/22 10:38:24;;;;;;;24.75;4.68;;;;;;;;;;5090421;27;20482;-62
2024/01/22 10:40:51;;;;;;;27.85;4.43;;;;;;;;;;5103177;27;20056;-62
2024/01/22 10:43:21;;;;;;;27.30;4.32;;;;;;;;;;5102643;27;20614;-60
2024/01/22 10:45:49;;;;;;;18.63;4.10;;;;;;;;;;5103674;27;20108;-61
2024/01/22 10:48:17;;;;;;;19.35;3.28;;;;;;;;;;5102432;27;20485;-60
2024/01/22 10:51:01;;;;;;;27.98;5.10;;;;;;;;;;5086553;27;20052;-59
2024/01/22 10:53:28;;;;;;;24.10;4.13;;;;;;;;;;5089647;27;20048;-61
2024/01/22 10:56:00;;;;;;;20.77;4.13;;;;;;;;;;5102332;27;20105;-60
2024/01/22 10:58:29;;;;;;;28.45;3.83;;;;;;;;;;5101242;27;20051;-61
2024/01/22 11:01:09;;;;;;;26.88;4.18;;;;;;;;;;5102475;27;20513;-59
2024/01/22 11:03:39;;;;;;;26.95;4.00;;;;;;;;;;5102632;27;20058;-61
2024/01/22 11:06:08;;;;;;;27.83;3.90;;;;;;;;;;5102982;27;20418;-60
2024/01/22 11:08:37;;;;;;;24.52;5.10;;;;;;;;;;5102811;27;20143;-60
2024/01/22 11:11:04;;;;;;;26.55;3.97;;;;;;;;;;5101998;27;20052;-61
2024/01/22 11:13:30;;;;;;;16.17;3.85;;;;;;;;;;5097611;27;20133;-60
2024/01/22 11:15:57;;;;;;;24.23;3.88;;;;;;;;;;5101580;27;20404;-60
2024/01/22 11:18:23;;;;;;;28.85;4.25;;;;;;;;;;5097564;27;20056;-60
2024/01/22 11:21:16;;;;;;;20.58;4.22;;;;;;;;;;5082511;28;20082;-60
2024/01/22 11:23:43;;;;;;;21.58;4.63;;;;;;;;;;5089620;27;20404;-60
2024/01/22 11:26:10;;;;;;;23.98;3.40;;;;;;;;;;5103439;27;20051;-59
2024/01/22 11:28:38;;;;;;;24.30;4.47;;;;;;;;;;5102014;27;20135;-61
2024/01/22 11:31:04;;;;;;;22.85;4.82;;;;;;;;;;5102448;27;20059;-61
2024/01/22 11:33:31;;;;;;;21.13;4.20;;;;;;;;;;5102330;27;20051;-61
2024/01/22 11:35:58;;;;;;;19.67;4.80;;;;;;;;;;5101826;28;20503;-61
2024/01/22 11:38:43;;;;;;;17.90;3.72;;;;;;;;;;5113028;27;20097;-61
2024/01/22 11:41:11;;;;;;;17.52;4.57;;;;;;;;;;5123472;27;20047;-61
2024/01/22 11:43:37;;;;;;;22.08;3.63;;;;;;;;;;5110815;27;20048;-61
2024/01/22 11:46:16;;;;;;;23.27;4.40;;;;;;;;;;5102113;27;20082;-61
2024/01/22 11:48:43;;;;;;;22.38;3.75;;;;;;;;;;5114192;27;20062;-59
2024/01/22 11:51:09;;;;;;;21.90;3.65;;;;;;;;;;5123698;27;20091;-60
2024/01/22 11:53:56;;;;;;;20.67;3.25;;;;;;;;;;5102784;27;20559;-60
2024/01/22 11:56:23;;;;;;;16.65;3.30;;;;;;;;;;5101420;27;20060;-60
2024/01/22 11:59:02;;;;;;;26.25;3.58;;;;;;;;;;5102903;27;20173;-60
2024/01/22 12:01:29;;;;;;;19.20;3.75;;;;;;;;;;5102708;27;20474;-60
2024/01/22 12:03:55;;;;;;;15.25;3.50;;;;;;;;;;5101957;27;20121;-60
2024/01/22 12:06:31;;;;;;;24.17;5.82;;;;;;;;;;5102896;27;20059;-60
2024/01/22 12:08:57;;;;;;;14.27;3.15;;;;;;;;;;5115275;27;20548;-60
2024/01/22 12:11:24;;;;;;;16.15;4.13;;;;;;;;;;5112382;27;20087;-61
2024/01/22 12:13:50;;;;;;;19.15;3.67;;;;;;;;;;5104366;27;20048;-61
2024/01/22 12:16:18;;;;;;;14.05;3.55;;;;;;;;;;5104512;27;20048;-61
2024/01/22 12:18:44;;;;;;;29.98;4.72;;;;;;;;;;5105234;27;20056;-61
2024/01/22 12:21:11;;;;;;;21.83;4.03;;;;;;;;;;5109344;27;20048;-60
2024/01/22 12:23:39;;;;;;;17.67;3.97;;;;;;;;;;5105464;27;20055;-59
2024/01/22 12:26:22;;;;;;;20.45;3.30;;;;;;;;;;5105378;27;20056;-59
2024/01/22 12:28:52;;;;;;;16.90;4.45;;;;;;;;;;5104813;27;20054;-60
2024/01/22 12:31:19;;;;;;;18.02;3.05;;;;;;;;;;5105707;27;20092;-60
2024/01/22 12:33:46;;;;;;;17.55;3.75;;;;;;;;;;5104684;27;20128;-61
2024/01/22 12:36:14;;;;;;;15.02;2.85;;;;;;;;;;5105492;27;20056;-60
2024/01/22 12:38:50;;;;;;;16.95;3.97;;;;;;;;;;5108342;27;20131;-60
2024/01/22 12:41:18;;;;;;;19.70;3.78;;;;;;;;;;5105025;28;20139;-62
2024/01/22 12:43:46;;;;;;;15.98;3.33;;;;;;;;;;5111486;27;20055;-60
2024/01/22 12:46:19;;;;;;;19.05;4.72;;;;;;;;;;5104959;27;20498;-61
2024/01/22 12:48:46;;;;;;;16.02;2.50;;;;;;;;;;5105125;27;20143;-61
2024/01/22 12:51:13;;;;;;;25.08;4.13;;;;;;;;;;5104798;27;20044;-61
2024/01/22 12:53:41;;;;;;;15.85;3.42;;;;;;;;;;5105334;27;20063;-61
2024/01/22 12:56:08;;;;;;;21.65;3.40;;;;;;;;;;5104663;27;20055;-61
2024/01/22 12:58:36;;;;;;;20.73;3.55;;;;;;;;;;5105054;27;20052;-59
2024/01/22 13:01:03;;;;;;;19.55;3.78;;;;;;;;;;5103960;27;20998;-60
2024/01/22 13:03:30;;;;;;;23.63;3.72;;;;;;;;;;5105210;27;20525;-61
2024/01/22 13:05:57;;;;;;;16.95;3.50;;;;;;;;;;5104833;27;20399;-61
2024/01/22 13:08:23;;;;;;;22.90;2.92;;;;;;;;;;5104745;27;20063;-61
2024/01/22 13:10:50;;;;;;;17.63;3.95;;;;;;;;;;5105101;27;20052;-60
2024/01/22 13:13:17;;;;;;;21.52;4.13;;;;;;;;;;5104204;27;20569;-59
2024/01/22 13:15:44;;;;;;;22.27;4.05;;;;;;;;;;5104715;27;20087;-60
2024/01/22 13:18:29;;;;;;;20.88;3.88;;;;;;;;;;5104720;27;20110;-60
2024/01/22 13:20:56;;;;;;;14.32;2.75;;;;;;;;;;5104252;27;20048;-59
2024/01/22 13:23:22;;;;;;;18.80;4.13;;;;;;;;;;5104036;27;20054;-60
2024/01/22 13:25:52;;;;;;;18.85;2.80;;;;;;;;;;5104266;27;20056;-60
2024/01/22 13:28:18;;;;;;;21.90;3.42;;;;;;;;;;5105265;27;20055;-60
2024/01/22 13:30:44;;;;;;;18.73;4.38;;;;;;;;;;5115987;27;20132;-60
2024/01/22 13:33:11;;;;;;;22.30;3.83;;;;;;;;;;5123382;27;20507;-60
2024/01/22 13:35:38;;;;;;;15.77;3.92;;;;;;;;;;5104551;28;20164;-60
2024/01/22 13:38:05;;;;;;;21.33;3.20;;;;;;;;;;5103793;27;20608;-59
2024/01/22 13:40:31;;;;;;;13.85;3.42;;;;;;;;;;5104313;27;20054;-61
2024/01/22 13:42:57;;;;;;;18.98;2.85;;;;;;;;;;5103754;27;20542;-61
2024/01/22 13:45:24;;;;;;;20.23;3.88;;;;;;;;;;5103680;27;20523;-61
2024/01/22 13:47:52;;;;;;;19.10;4.43;;;;;;;;;;5104262;27;20055;-63
2024/01/22 13:50:19;;;;;;;19.00;3.67;;;;;;;;;;5104643;27;20122;-61
2024/01/22 13:52:46;;;;;;;24.27;4.03;;;;;;;;;;5103297;27;20056;-61
2024/01/22 13:55:13;;;;;;;22.98;5.00;;;;;;;;;;5110415;27;20044;-62
2024/01/22 13:57:40;;;;;;;23.65;4.85;;;;;;;;;;5098252;27;20083;-59
2024/01/22 14:00:06;;;;;;;15.02;3.22;;;;;;;;;;5104947;27;20048;-61
2024/01/22 14:02:33;;;;;;;10.70;3.55;;;;;;;;;;5102060;27;20552;-60
2024/01/22 14:05:00;;;;;;;23.13;4.72;;;;;;;;;;5101986;28;20074;-61
2024/01/22 14:07:27;;;;;;;17.52;3.45;;;;;;;;;;5103565;27;20048;-60
2024/01/22 14:09:53;;;;;;;20.67;4.10;;;;;;;;;;5087290;27;20128;-61
2024/01/22 14:12:20;;;;;;;22.42;4.35;;;;;;;;;;5083889;28;20064;-61
2024/01/22 14:14:46;;;;;;;27.95;3.97;;;;;;;;;;5103152;27;20047;-60
2024/01/22 14:17:13;;;;;;;22.30;3.95;;;;;;;;;;5104126;27;20048;-60
2024/01/22 14:19:39;;;;;;;15.23;3.30;;;;;;;;;;5107098;27;20054;-61
2024/01/22 14:22:08;;;;;;;24.73;5.97;;;;;;;;;;5103162;27;20060;-59
2024/01/22 14:24:35;;;;;;;26.60;4.10;;;;;;;;;;5103372;27;20052;-61
2024/01/22 14:27:01;;;;;;;25.00;4.40;;;;;;;;;;5103191;27;20056;-60
2024/01/22 14:29:31;;;;;;;18.92;3.92;;;;;;;;;;5103617;27;20137;-60
2024/01/22 14:31:57;;;;;;;27.88;4.53;;;;;;;;;;5102838;27;20060;-59
2024/01/22 14:34:24;;;;;;;24.05;3.97;;;;;;;;;;5104582;27;20044;-60
2024/01/22 14:36:51;;;;;;;20.10;3.70;;;;;;;;;;5101565;27;20056;-60